createdAt,value
2017-08-05T00:02:08.324Z,41.30
2017-08-05T00:04:35.941Z,41.40
2017-08-05T00:07:03.563Z,39.80
2017-08-05T00:09:31.196Z,42.10
2017-08-05T00:11:59.594Z,44.50
2017-08-05T00:14:27.244Z,44.50
2017-08-05T00:16:54.843Z,42.30
2017-08-05T00:19:23.211Z,42.70
2017-08-05T00:21:51.613Z,40.00
2017-08-05T00:24:19.235Z,40.00
2017-08-05T00:26:46.920Z,40.60
2017-08-05T00:29:14.537Z,42.90
2017-08-05T00:31:42.152Z,45.30
2017-08-05T00:34:09.934Z,43.70
2017-08-05T00:36:37.543Z,42.00
2017-08-05T00:39:05.190Z,45.00
2017-08-05T00:41:32.812Z,45.40
2017-08-05T00:44:00.416Z,48.70
2017-08-05T00:46:28.059Z,43.90
2017-08-05T00:48:55.670Z,47.20
2017-08-05T00:51:23.311Z,52.70
2017-08-05T00:53:50.925Z,54.30
2017-08-05T00:58:56.166Z,57.10
2017-08-05T01:01:23.799Z,56.90
2017-08-05T01:03:51.447Z,55.50
2017-08-05T01:06:19.085Z,58.10
2017-08-05T01:08:46.710Z,57.40
2017-08-05T01:11:14.358Z,58.60
2017-08-05T01:13:41.969Z,59.70
2017-08-05T01:16:09.626Z,58.30
2017-08-05T01:18:38.011Z,59.50
2017-08-05T01:21:05.633Z,59.50
2017-08-05T01:23:33.283Z,58.50
2017-08-05T01:26:01.672Z,62.20
2017-08-05T01:28:29.329Z,62.20
2017-08-05T01:30:56.945Z,62.10
2017-08-05T01:33:25.334Z,63.80
2017-08-05T01:35:52.994Z,63.80
2017-08-05T01:38:20.665Z,63.20
2017-08-05T01:40:48.327Z,64.50
2017-08-05T01:43:15.951Z,64.00
2017-08-05T01:45:43.565Z,65.30
2017-08-05T01:48:11.215Z,64.50
2017-08-05T01:50:38.849Z,65.10
2017-08-05T01:53:06.493Z,66.70
2017-08-05T01:55:34.109Z,65.50
2017-08-05T01:58:01.737Z,65.50
2017-08-05T02:00:29.421Z,64.10
2017-08-05T02:02:57.041Z,64.70
2017-08-05T02:05:24.696Z,64.20
2017-08-05T02:07:52.301Z,64.30
2017-08-05T02:10:19.973Z,63.90
2017-08-05T02:12:47.652Z,65.60
2017-08-05T02:15:15.278Z,66.90
2017-08-05T02:17:43.700Z,67.40
2017-08-05T02:20:11.345Z,67.30
2017-08-05T02:22:38.967Z,67.60
2017-08-05T02:25:06.654Z,68.60
2017-08-05T02:27:34.280Z,68.70
2017-08-05T02:30:01.923Z,70.10
2017-08-05T02:32:29.641Z,70.40
2017-08-05T02:34:58.008Z,71.30
2017-08-05T02:37:25.697Z,71.30
2017-08-05T02:39:53.318Z,71.20
2017-08-05T02:42:21.019Z,72.40
2017-08-05T02:44:48.666Z,73.00
2017-08-05T02:47:16.289Z,73.00
2017-08-05T02:49:43.953Z,73.60
2017-08-05T02:52:11.609Z,74.80
2017-08-05T02:54:40.089Z,75.70
2017-08-05T02:57:07.723Z,75.70
2017-08-05T02:59:36.130Z,75.10
2017-08-05T03:02:03.827Z,75.00
2017-08-05T03:04:31.477Z,74.10
2017-08-05T03:06:59.961Z,75.80
2017-08-05T03:09:27.596Z,75.80
2017-08-05T03:11:56.000Z,74.70
2017-08-05T03:14:23.670Z,74.70
2017-08-05T03:16:51.289Z,74.80
2017-08-05T03:19:18.985Z,75.40
2017-08-05T03:21:46.685Z,74.70
2017-08-05T03:24:14.322Z,75.90
2017-08-05T03:26:41.993Z,76.70
2017-08-05T03:29:09.679Z,78.10
2017-08-05T03:31:38.112Z,77.80
2017-08-05T03:34:06.314Z,78.40
2017-08-05T03:36:34.731Z,80.00
2017-08-05T03:39:02.402Z,80.00
2017-08-05T03:41:30.040Z,79.40
2017-08-05T03:43:57.714Z,79.70
2017-08-05T03:46:26.129Z,81.30
2017-08-05T03:48:53.826Z,80.60
2017-08-05T03:51:21.518Z,80.60
2017-08-05T03:53:49.146Z,81.20
2017-08-05T03:56:16.805Z,80.60
2017-08-05T03:58:44.454Z,80.60
2017-08-05T04:01:12.083Z,79.40
2017-08-05T04:03:39.766Z,79.70
2017-08-05T04:06:07.452Z,80.00
2017-08-05T04:08:35.122Z,80.70
2017-08-05T04:11:02.777Z,81.20
2017-08-05T04:13:30.416Z,80.70
2017-08-05T04:15:58.083Z,80.10
2017-08-05T04:18:25.740Z,80.40
2017-08-05T04:20:53.423Z,79.90
2017-08-05T04:23:21.052Z,78.90
2017-08-05T04:25:48.707Z,78.50
2017-08-05T04:28:16.366Z,78.00
2017-08-05T04:30:44.007Z,78.80
2017-08-05T04:33:11.681Z,77.90
2017-08-05T04:35:40.090Z,78.30
2017-08-05T04:38:07.728Z,78.20
2017-08-05T04:40:35.409Z,79.10
2017-08-05T04:43:03.037Z,78.40
2017-08-05T04:45:30.695Z,77.90
2017-08-05T04:47:58.365Z,76.90
2017-08-05T04:50:26.764Z,72.90
2017-08-05T04:52:54.425Z,72.30
2017-08-05T04:55:22.058Z,74.30
2017-08-05T04:57:49.727Z,74.70
2017-08-05T05:00:17.357Z,74.40
2017-08-05T05:02:45.066Z,73.70
2017-08-05T05:05:13.495Z,67.30
2017-08-05T05:07:41.182Z,67.30
2017-08-05T05:10:08.852Z,66.20
2017-08-05T05:12:37.249Z,62.60
2017-08-05T05:15:04.867Z,62.50
2017-08-05T05:17:32.525Z,62.60
2017-08-05T05:20:00.903Z,55.50
2017-08-05T05:22:28.544Z,56.20
2017-08-05T05:24:56.143Z,57.00
2017-08-05T05:27:23.757Z,55.80
2017-08-05T05:29:51.406Z,54.30
2017-08-05T05:32:19.005Z,51.60
2017-08-05T05:34:47.409Z,48.60
2017-08-05T05:37:15.016Z,48.60
2017-08-05T05:39:43.385Z,46.30
2017-08-05T05:42:11.788Z,50.40
2017-08-05T05:44:39.415Z,50.30
2017-08-05T05:47:07.051Z,47.10
2017-08-05T05:49:35.428Z,48.10
2017-08-05T05:52:03.040Z,48.10
2017-08-05T05:54:31.457Z,43.30
2017-08-05T05:56:59.081Z,43.20
2017-08-05T05:59:26.729Z,41.90
2017-08-05T06:01:54.337Z,42.30
2017-08-05T06:04:22.707Z,40.30
2017-08-05T06:06:51.110Z,41.50
2017-08-05T06:09:18.729Z,41.40
2017-08-05T06:11:47.150Z,38.00
2017-08-05T06:14:14.764Z,38.00
2017-08-05T06:16:42.382Z,40.30
2017-08-05T06:19:10.842Z,39.70
2017-08-05T06:21:38.443Z,39.50
2017-08-05T06:24:06.140Z,35.10
2017-08-05T06:26:33.755Z,34.10
2017-08-05T06:29:01.368Z,34.40
2017-08-05T06:31:29.053Z,31.10
2017-08-05T06:33:56.678Z,30.20
2017-08-05T06:36:24.321Z,28.10
2017-08-05T06:38:51.929Z,26.70
2017-08-05T06:41:19.588Z,25.90
2017-08-05T06:43:47.224Z,21.80
2017-08-05T06:46:14.832Z,22.30
2017-08-05T06:48:42.473Z,19.90
2017-08-05T06:51:10.067Z,20.70
2017-08-05T06:53:37.665Z,20.60
2017-08-05T06:56:05.305Z,18.20
2017-08-05T06:58:32.913Z,20.10
2017-08-05T07:01:00.656Z,18.70
2017-08-05T07:03:28.277Z,18.90
2017-08-05T07:05:56.709Z,16.60
2017-08-05T07:08:24.352Z,16.50
2017-08-05T07:10:52.015Z,15.30
2017-08-05T07:13:19.928Z,14.70
2017-08-05T07:15:47.533Z,14.60
2017-08-05T07:18:15.908Z,14.40
2017-08-05T07:20:44.442Z,15.30
2017-08-05T07:23:12.039Z,15.20
2017-08-05T07:25:39.669Z,15.60
2017-08-05T07:28:07.316Z,16.00
2017-08-05T07:30:35.198Z,16.40
2017-08-05T07:33:02.844Z,15.10
2017-08-05T07:35:30.444Z,13.40
2017-08-05T07:37:58.053Z,11.70
2017-08-05T07:40:25.708Z,11.60
2017-08-05T07:42:53.308Z,11.50
2017-08-05T07:45:20.960Z,13.40
2017-08-05T07:47:48.565Z,13.80
2017-08-05T07:50:16.939Z,11.50
2017-08-05T07:52:44.580Z,11.90
2017-08-05T07:55:12.997Z,12.30
2017-08-05T07:57:40.636Z,12.30
2017-08-05T08:00:08.246Z,10.50
2017-08-05T08:02:36.616Z,14.10
2017-08-05T08:05:05.022Z,13.30
2017-08-05T08:07:32.632Z,13.30
2017-08-05T08:10:00.259Z,13.70
2017-08-05T08:12:28.646Z,11.00
2017-08-05T08:14:56.264Z,11.20
2017-08-05T08:17:23.911Z,11.10
2017-08-05T08:19:52.282Z,9.40
2017-08-05T08:22:20.696Z,12.80
2017-08-05T08:24:48.309Z,12.80
2017-08-05T08:27:15.921Z,12.20
2017-08-05T08:29:43.570Z,10.50
2017-08-05T08:32:11.163Z,10.10
2017-08-05T08:34:38.796Z,8.00
2017-08-05T08:37:06.429Z,10.10
2017-08-05T08:39:34.857Z,7.80
2017-08-05T08:42:02.497Z,7.80
2017-08-05T08:44:30.100Z,10.00
2017-08-05T08:46:57.739Z,9.80
2017-08-05T08:49:26.132Z,10.70
2017-08-05T08:51:53.735Z,10.70
2017-08-05T08:54:21.397Z,9.00
2017-08-05T08:56:49.010Z,10.60
2017-08-05T08:59:16.642Z,11.90
2017-08-05T09:01:44.256Z,8.90
2017-08-05T09:04:11.858Z,8.20
2017-08-05T09:06:40.271Z,9.00
2017-08-05T09:09:07.898Z,8.90
2017-08-05T09:11:35.525Z,9.60
2017-08-05T09:14:03.913Z,8.60
2017-08-05T09:16:31.509Z,8.60
2017-08-05T09:18:59.146Z,7.80
2017-08-05T09:21:26.765Z,7.30
2017-08-05T09:23:54.406Z,7.70
2017-08-05T09:26:22.011Z,6.10
2017-08-05T09:28:49.604Z,7.10
2017-08-05T09:31:17.232Z,9.00
2017-08-05T09:33:44.841Z,7.40
2017-08-05T09:36:12.485Z,7.50
2017-08-05T09:38:40.096Z,7.30
2017-08-05T09:41:07.713Z,6.20
2017-08-05T09:43:35.367Z,5.80
2017-08-05T09:46:02.969Z,6.50
2017-08-05T09:48:30.595Z,6.90
2017-08-05T09:50:58.210Z,7.30
2017-08-05T09:53:25.820Z,6.40
2017-08-05T09:55:54.232Z,6.80
2017-08-05T09:58:21.840Z,6.80
2017-08-05T10:00:50.249Z,9.30
2017-08-05T10:03:17.856Z,9.30
2017-08-05T10:05:45.469Z,10.60
2017-08-05T10:08:13.104Z,9.90
2017-08-05T10:10:40.716Z,11.20
2017-08-05T10:13:08.349Z,10.40
2017-08-05T10:15:35.956Z,8.80
2017-08-05T10:18:03.563Z,7.90
2017-08-05T10:20:31.188Z,8.40
2017-08-05T10:22:58.790Z,9.10
2017-08-05T10:25:26.450Z,9.00
2017-08-05T10:27:54.848Z,7.20
2017-08-05T10:30:22.485Z,7.20
2017-08-05T10:32:50.108Z,7.40
2017-08-05T10:35:17.712Z,10.30
2017-08-05T10:37:45.358Z,11.10
2017-08-05T10:40:12.964Z,10.50
2017-08-05T10:42:40.615Z,12.20
2017-08-05T10:45:08.276Z,11.40
2017-08-05T10:47:35.907Z,9.70
2017-08-05T10:50:03.550Z,9.30
2017-08-05T10:52:31.163Z,6.60
2017-08-05T10:54:58.775Z,7.40
2017-08-05T10:57:26.438Z,7.80
2017-08-05T10:59:54.092Z,8.40
2017-08-05T11:02:21.736Z,7.00
2017-08-05T11:04:49.339Z,8.10
2017-08-05T11:07:16.945Z,9.60
2017-08-05T11:09:44.589Z,10.50
2017-08-05T11:12:12.205Z,10.70
2017-08-05T11:14:40.241Z,11.70
2017-08-05T11:17:07.945Z,11.20
2017-08-05T11:19:35.544Z,12.60
2017-08-05T11:22:03.181Z,10.60
2017-08-05T11:24:30.848Z,9.80
2017-08-05T11:26:58.503Z,10.30
2017-08-05T11:29:26.161Z,10.00
2017-08-05T11:31:53.769Z,12.60
2017-08-05T11:34:21.579Z,14.40
2017-08-05T11:36:50.078Z,11.30
2017-08-05T11:39:17.703Z,11.30
2017-08-05T11:41:46.083Z,12.50
2017-08-05T11:44:13.716Z,12.50
2017-08-05T11:46:41.377Z,13.60
2017-08-05T11:49:09.030Z,12.70
2017-08-05T11:51:37.513Z,13.70
2017-08-05T11:54:05.127Z,13.60
2017-08-05T11:56:32.735Z,12.20
2017-08-05T11:59:00.385Z,12.30
2017-08-05T12:01:28.049Z,13.10
2017-08-05T12:03:56.471Z,12.40
2017-08-05T12:06:24.093Z,12.40
2017-08-05T12:08:51.700Z,13.30
2017-08-05T12:11:19.554Z,14.00
2017-08-05T12:13:47.933Z,13.40
2017-08-05T12:16:15.582Z,13.40
2017-08-05T12:18:43.960Z,12.70
2017-08-05T12:21:11.585Z,12.70
2017-08-05T12:23:39.237Z,12.70
2017-08-05T12:26:06.874Z,13.00
2017-08-05T12:28:35.279Z,12.40
2017-08-05T12:31:02.895Z,12.40
2017-08-05T12:33:30.801Z,13.50
2017-08-05T12:35:58.459Z,12.10
2017-08-05T12:38:26.088Z,12.60
2017-08-05T12:40:53.754Z,13.00
2017-08-05T12:43:21.386Z,11.60
2017-08-05T12:45:49.023Z,14.00
2017-08-05T12:48:17.486Z,15.10
2017-08-05T12:50:45.084Z,15.10
2017-08-05T12:53:13.533Z,13.10
2017-08-05T12:55:41.920Z,14.70
2017-08-05T12:58:09.577Z,14.60
2017-08-05T13:00:37.211Z,15.00
2017-08-05T13:03:04.833Z,11.30
2017-08-05T13:05:32.481Z,12.50
2017-08-05T13:08:00.651Z,12.90
2017-08-05T13:10:28.282Z,12.20
2017-08-05T13:12:55.935Z,14.00
2017-08-05T13:15:24.324Z,14.10
2017-08-05T13:17:51.965Z,13.80
2017-08-05T13:20:19.666Z,13.50
2017-08-05T13:22:47.297Z,14.30
2017-08-05T13:25:14.934Z,14.40
2017-08-05T13:27:42.540Z,14.70
2017-08-05T13:30:11.184Z,13.80
2017-08-05T13:32:39.768Z,13.90
2017-08-05T13:35:09.223Z,15.20
2017-08-05T13:37:36.876Z,14.80
2017-08-05T13:40:04.490Z,14.10
2017-08-05T13:42:32.127Z,14.10
2017-08-05T13:44:59.808Z,15.10
2017-08-05T13:47:27.457Z,14.30
2017-08-05T13:49:55.129Z,15.20
2017-08-05T13:52:22.772Z,15.40
2017-08-05T13:54:50.434Z,15.90
2017-08-05T13:57:18.811Z,16.10
2017-08-05T13:59:47.190Z,15.40
2017-08-05T14:02:14.827Z,15.40
2017-08-05T14:04:42.465Z,15.30
2017-08-05T14:07:10.982Z,15.20
2017-08-05T14:09:38.640Z,15.10
2017-08-05T14:12:06.252Z,16.50
2017-08-05T14:14:33.887Z,16.40
2017-08-05T14:17:01.552Z,14.50
2017-08-05T14:19:29.220Z,15.50
2017-08-05T14:21:56.958Z,15.10
2017-08-05T14:24:24.591Z,13.60
2017-08-05T14:26:52.226Z,14.90
2017-08-05T14:29:20.004Z,15.20
2017-08-05T14:31:47.653Z,16.60
2017-08-05T14:34:15.342Z,14.70
2017-08-05T14:36:43.716Z,14.80
2017-08-05T14:39:11.413Z,14.30
2017-08-05T14:41:39.051Z,14.30
2017-08-05T14:44:06.699Z,14.60
2017-08-05T14:46:34.340Z,14.90
2017-08-05T14:49:01.959Z,16.30
2017-08-05T14:51:29.627Z,15.70
2017-08-05T14:53:57.265Z,15.60
2017-08-05T14:56:24.953Z,15.80
2017-08-05T14:58:52.555Z,18.00
2017-08-05T15:01:20.169Z,17.10
2017-08-05T15:03:47.818Z,16.50
2017-08-05T15:06:16.240Z,15.90
2017-08-05T15:08:43.885Z,15.90
2017-08-05T15:11:11.620Z,15.40
2017-08-05T15:13:39.257Z,16.60
2017-08-05T15:16:06.912Z,17.50
2017-08-05T15:18:34.533Z,16.90
2017-08-05T15:21:02.248Z,17.10
2017-08-05T15:23:30.966Z,16.10
2017-08-05T15:25:58.604Z,16.40
2017-08-05T15:28:26.257Z,17.50
2017-08-05T15:30:53.905Z,16.30
2017-08-05T15:33:21.881Z,17.00
2017-08-05T15:35:49.632Z,17.50
2017-08-05T15:38:17.245Z,17.40
2017-08-05T15:40:44.943Z,16.80
2017-08-05T15:43:12.555Z,17.20
2017-08-05T15:45:40.338Z,17.30
2017-08-05T15:48:07.944Z,17.70
2017-08-05T15:50:35.586Z,19.80
2017-08-05T15:53:03.244Z,19.00
2017-08-05T15:55:30.920Z,18.60
2017-08-05T15:57:58.560Z,18.90
2017-08-05T16:00:26.160Z,19.80
2017-08-05T16:02:54.553Z,19.20
2017-08-05T16:05:22.206Z,19.20
2017-08-05T16:07:49.868Z,21.20
2017-08-05T16:10:17.517Z,20.20
2017-08-05T16:12:45.177Z,20.80
2017-08-05T16:15:12.812Z,21.30
2017-08-05T16:17:40.464Z,20.90
2017-08-05T16:20:08.117Z,22.60
2017-08-05T16:22:35.768Z,23.20
2017-08-05T16:25:03.388Z,24.80
2017-08-05T16:27:31.065Z,26.50
2017-08-05T16:29:58.664Z,27.50
2017-08-05T16:32:26.276Z,27.30
2017-08-05T16:34:54.671Z,29.20
2017-08-05T16:37:22.272Z,29.10
2017-08-05T16:39:50.662Z,31.70
2017-08-05T16:42:18.267Z,31.70
2017-08-05T16:44:45.909Z,32.40
2017-08-05T16:47:13.578Z,35.80
2017-08-05T16:49:41.952Z,46.10
2017-08-05T16:52:10.347Z,50.70
2017-08-05T16:54:37.983Z,50.70
2017-08-05T16:57:05.606Z,58.60
2017-08-05T16:59:33.263Z,62.60
2017-08-05T17:02:00.887Z,66.10
2017-08-05T17:04:28.608Z,69.50
2017-08-05T17:06:56.227Z,69.60
2017-08-05T17:09:23.840Z,72.00
2017-08-05T17:11:51.556Z,71.60
2017-08-05T17:14:19.210Z,72.10
2017-08-05T17:16:46.860Z,71.60
2017-08-05T17:19:14.463Z,69.40
2017-08-05T17:21:42.107Z,72.20
2017-08-05T17:24:10.720Z,72.40
2017-08-05T17:26:38.335Z,71.20
2017-08-05T17:29:05.976Z,72.50
2017-08-05T17:31:33.583Z,70.50
2017-08-05T17:34:01.215Z,70.90
2017-08-05T17:36:29.645Z,70.10
2017-08-05T17:38:57.251Z,70.00
2017-08-05T17:41:24.901Z,71.60
2017-08-05T17:43:52.503Z,74.50
2017-08-05T17:46:20.120Z,72.60
2017-08-05T17:48:47.775Z,73.40
2017-08-05T17:51:15.386Z,72.80
2017-08-05T17:53:43.045Z,73.60
2017-08-05T17:56:10.661Z,73.10
2017-08-05T17:58:39.080Z,73.30
2017-08-05T18:01:06.857Z,73.30
2017-08-05T18:03:34.461Z,79.20
2017-08-05T18:06:02.153Z,79.20
2017-08-05T18:08:31.323Z,84.00
2017-08-05T18:10:58.990Z,84.00
2017-08-05T18:13:26.718Z,83.90
2017-08-05T18:15:54.338Z,83.60
2017-08-05T18:18:21.990Z,85.90
2017-08-05T18:20:50.190Z,84.70
2017-08-05T18:23:18.609Z,83.70
2017-08-05T18:25:46.232Z,83.70
2017-08-05T18:28:13.852Z,83.20
2017-08-05T18:30:41.504Z,85.50
2017-08-05T18:33:09.193Z,85.70
2017-08-05T18:35:36.839Z,90.50
2017-08-05T18:38:04.476Z,87.00
2017-08-05T18:40:32.095Z,85.60
2017-08-05T18:42:59.981Z,83.80
2017-08-05T18:45:27.589Z,85.70
2017-08-05T18:47:55.238Z,89.20
2017-08-05T18:50:22.852Z,84.50
2017-08-05T18:52:50.578Z,88.00
2017-08-05T18:55:18.239Z,87.90
2017-08-05T18:57:45.861Z,88.20
2017-08-05T19:00:13.526Z,88.80
2017-08-05T19:02:41.175Z,86.80
2017-08-05T19:05:08.801Z,88.70
2017-08-05T19:07:37.277Z,89.30
2017-08-05T19:10:04.933Z,88.60
2017-08-05T19:12:32.983Z,92.00
2017-08-05T19:15:00.600Z,90.90
2017-08-05T19:17:28.217Z,91.50
2017-08-05T19:19:56.629Z,94.60
2017-08-05T19:22:24.253Z,94.60
2017-08-05T19:24:51.911Z,96.10
2017-08-05T19:27:20.248Z,99.50
2017-08-05T19:29:47.873Z,99.90
2017-08-05T19:32:16.275Z,99.80
2017-08-05T19:34:43.889Z,99.10
2017-08-05T19:37:12.313Z,98.70
2017-08-05T19:39:39.944Z,98.70
2017-08-05T19:42:07.560Z,99.90
2017-08-05T19:44:35.575Z,99.90
2017-08-05T19:47:03.191Z,97.80
2017-08-05T19:49:30.836Z,99.90
2017-08-05T19:51:58.453Z,99.90
2017-08-05T19:54:26.096Z,99.90
2017-08-05T19:56:53.740Z,97.10
2017-08-05T19:59:22.110Z,97.10
2017-08-05T20:01:49.772Z,97.10
2017-08-05T20:04:17.379Z,98.80
2017-08-05T20:06:45.786Z,98.50
2017-08-05T20:09:13.445Z,99.10
2017-08-05T20:11:41.064Z,97.80
2017-08-05T20:14:08.737Z,99.70
2017-08-05T20:16:36.381Z,98.60
2017-08-05T20:19:04.063Z,98.60
2017-08-05T20:21:31.711Z,98.10
2017-08-05T20:23:59.371Z,99.90
2017-08-05T20:26:27.821Z,99.80
2017-08-05T20:28:55.440Z,99.60
2017-08-05T20:31:23.064Z,99.90
2017-08-05T20:33:50.720Z,99.90
2017-08-05T20:36:18.336Z,99.90
2017-08-05T20:38:46.755Z,99.90
2017-08-05T20:41:14.373Z,99.90
2017-08-05T20:43:41.984Z,99.90
2017-08-05T20:46:10.388Z,99.90
2017-08-05T20:48:38.006Z,99.90
2017-08-05T20:51:05.664Z,99.90
2017-08-05T20:53:33.294Z,99.90
2017-08-05T20:56:01.668Z,99.90
2017-08-05T20:58:29.340Z,99.90
2017-08-05T21:00:56.965Z,99.90
2017-08-05T21:03:24.586Z,99.90
2017-08-05T21:05:52.251Z,99.90
2017-08-05T21:08:19.884Z,99.90
2017-08-05T21:10:48.279Z,99.90
2017-08-05T21:13:15.926Z,99.90
2017-08-05T21:15:43.559Z,99.90
2017-08-05T21:18:11.195Z,99.90
2017-08-05T21:20:39.641Z,99.90
2017-08-05T21:23:07.257Z,99.90
2017-08-05T21:25:34.882Z,99.90
2017-08-05T21:28:02.552Z,99.90
2017-08-05T21:30:30.173Z,99.90
2017-08-05T21:32:57.792Z,99.90
2017-08-05T21:35:26.208Z,99.90
2017-08-05T21:37:53.838Z,99.90
2017-08-05T21:40:21.507Z,99.90
2017-08-05T21:42:49.129Z,99.90
2017-08-05T21:45:16.736Z,99.90
2017-08-05T21:47:45.147Z,99.90
2017-08-05T21:50:12.757Z,99.90
2017-08-05T21:52:40.395Z,99.90
2017-08-05T21:55:08.003Z,98.40
2017-08-05T21:57:35.617Z,98.70
2017-08-05T22:00:03.308Z,98.80
2017-08-05T22:02:30.944Z,97.90
2017-08-05T22:04:58.658Z,97.40
2017-08-05T22:07:26.259Z,95.10
2017-08-05T22:09:55.406Z,94.10
2017-08-05T22:12:23.049Z,94.70
2017-08-05T22:14:50.661Z,96.10
2017-08-05T22:17:18.300Z,96.60
2017-08-05T22:19:45.913Z,96.40
2017-08-05T22:22:13.519Z,96.80
2017-08-05T22:24:41.164Z,97.40
2017-08-05T22:27:08.785Z,98.00
2017-08-05T22:29:36.472Z,98.00
2017-08-05T22:32:04.113Z,97.20
2017-08-05T22:34:31.769Z,97.70
2017-08-05T22:36:59.555Z,97.10
2017-08-05T22:39:27.165Z,99.00
2017-08-05T22:41:54.794Z,97.80
2017-08-05T22:44:22.404Z,96.40
2017-08-05T22:46:50.791Z,96.00
2017-08-05T22:49:18.431Z,96.00
2017-08-05T22:51:46.043Z,98.30
2017-08-05T22:54:13.736Z,96.90
2017-08-05T22:56:41.358Z,96.40
2017-08-05T22:59:09.865Z,98.30
2017-08-05T23:01:43.010Z,98.40
2017-08-05T23:04:10.830Z,98.10
2017-08-05T23:06:39.249Z,97.30
2017-08-05T23:09:06.889Z,97.20
2017-08-05T23:11:34.524Z,98.00
2017-08-05T23:14:02.183Z,98.80
2017-08-05T23:16:29.802Z,98.30
2017-08-05T23:18:57.441Z,99.00
2017-08-05T23:21:25.813Z,98.20
2017-08-05T23:23:53.441Z,98.00
2017-08-05T23:26:21.109Z,99.00
2017-08-05T23:28:48.724Z,99.90
2017-08-05T23:31:16.401Z,99.90
2017-08-05T23:33:44.018Z,99.00
2017-08-05T23:36:11.680Z,97.00
2017-08-05T23:38:39.290Z,97.50
2017-08-05T23:41:06.895Z,98.70
2017-08-05T23:43:34.545Z,98.90
2017-08-05T23:46:02.193Z,98.80
2017-08-05T23:48:29.866Z,98.60
2017-08-05T23:50:58.277Z,97.30
2017-08-05T23:53:25.919Z,96.80
2017-08-05T23:55:53.602Z,97.50
2017-08-05T23:58:21.240Z,98.00
